sensor_id;sensor_type;location;lat;lon;timestamp;pressure;altitude;pressure_sealevel;temperature;humidity
55486;BME280;71262;-25.924;28.194;2023-12-04T00:01:06;85045.21;;;18.68;46.08
55486;BME280;71262;-25.924;28.194;2023-12-04T00:03:31;85044.28;;;18.69;46.09
55486;BME280;71262;-25.924;28.194;2023-12-04T00:05:56;85041.82;;;18.64;45.75
55486;BME280;71262;-25.924;28.194;2023-12-04T00:08:21;85042.38;;;18.87;45.73
55486;BME280;71262;-25.924;28.194;2023-12-04T00:10:47;85042.70;;;18.82;46.19
55486;BME280;71262;-25.924;28.194;2023-12-04T00:13:12;85045.20;;;18.46;46.07
55486;BME280;71262;-25.924;28.194;2023-12-04T00:15:38;85046.26;;;18.80;46.31
55486;BME280;71262;-25.924;28.194;2023-12-04T00:18:03;85049.32;;;18.57;46.25
55486;BME280;71262;-25.924;28.194;2023-12-04T00:20:28;85048.39;;;18.72;46.47
55486;BME280;71262;-25.924;28.194;2023-12-04T00:22:53;85045.25;;;18.36;46.62
55486;BME280;71262;-25.924;28.194;2023-12-04T00:25:18;85042.64;;;18.74;46.47
55486;BME280;71262;-25.924;28.194;2023-12-04T00:27:43;85042.28;;;18.71;46.09
55486;BME280;71262;-25.924;28.194;2023-12-04T00:30:09;85041.76;;;18.77;46.43
55486;BME280;71262;-25.924;28.194;2023-12-04T00:32:34;85041.16;;;18.32;46.39
55486;BME280;71262;-25.924;28.194;2023-12-04T00:34:59;85042.14;;;18.49;46.51
55486;BME280;71262;-25.924;28.194;2023-12-04T00:37:25;85042.33;;;18.51;46.11
55486;BME280;71262;-25.924;28.194;2023-12-04T00:39:49;85044.42;;;18.65;45.87
55486;BME280;71262;-25.924;28.194;2023-12-04T00:42:14;85047.79;;;18.70;46.10
55486;BME280;71262;-25.924;28.194;2023-12-04T00:44:39;85051.16;;;18.55;46.34
55486;BME280;71262;-25.924;28.194;2023-12-04T00:47:04;85051.40;;;18.56;46.36
55486;BME280;71262;-25.924;28.194;2023-12-04T00:49:30;85050.32;;;18.49;46.47
55486;BME280;71262;-25.924;28.194;2023-12-04T00:51:55;85051.50;;;18.69;46.68
55486;BME280;71262;-25.924;28.194;2023-12-04T00:54:20;85053.34;;;18.67;46.73
55486;BME280;71262;-25.924;28.194;2023-12-04T00:56:45;85055.39;;;18.65;46.32
55486;BME280;71262;-25.924;28.194;2023-12-04T00:59:10;85057.53;;;18.63;46.39
55486;BME280;71262;-25.924;28.194;2023-12-04T01:01:36;85057.05;;;18.53;46.56
55486;BME280;71262;-25.924;28.194;2023-12-04T01:04:00;85056.27;;;18.67;46.73
55486;BME280;71262;-25.924;28.194;2023-12-04T01:06:26;85060.04;;;18.54;46.97
55486;BME280;71262;-25.924;28.194;2023-12-04T01:08:52;85059.64;;;18.27;46.66
55486;BME280;71262;-25.924;28.194;2023-12-04T01:11:16;85063.30;;;18.81;46.48
55486;BME280;71262;-25.924;28.194;2023-12-04T01:13:41;85065.72;;;18.71;46.66
55486;BME280;71262;-25.924;28.194;2023-12-04T01:16:07;85066.76;;;18.77;46.63
55486;BME280;71262;-25.924;28.194;2023-12-04T01:18:31;85069.75;;;18.36;46.87
55486;BME280;71262;-25.924;28.194;2023-12-04T01:20:57;85074.81;;;18.51;47.02
55486;BME280;71262;-25.924;28.194;2023-12-04T01:23:22;85073.00;;;18.55;47.00
55486;BME280;71262;-25.924;28.194;2023-12-04T01:25:47;85072.85;;;18.45;46.67
55486;BME280;71262;-25.924;28.194;2023-12-04T01:28:12;85072.39;;;18.49;46.55
55486;BME280;71262;-25.924;28.194;2023-12-04T01:30:37;85071.72;;;18.41;46.70
55486;BME280;71262;-25.924;28.194;2023-12-04T01:33:03;85071.79;;;18.64;46.72
55486;BME280;71262;-25.924;28.194;2023-12-04T01:35:28;85069.82;;;18.53;46.83
55486;BME280;71262;-25.924;28.194;2023-12-04T01:37:53;85069.01;;;18.43;47.02
55486;BME280;71262;-25.924;28.194;2023-12-04T01:40:19;85071.85;;;18.50;46.87
55486;BME280;71262;-25.924;28.194;2023-12-04T01:42:45;85072.86;;;18.25;46.88
55486;BME280;71262;-25.924;28.194;2023-12-04T01:45:10;85075.45;;;18.45;46.91
55486;BME280;71262;-25.924;28.194;2023-12-04T01:47:35;85077.34;;;18.36;46.63
55486;BME280;71262;-25.924;28.194;2023-12-04T01:50:01;85079.19;;;18.43;46.91
55486;BME280;71262;-25.924;28.194;2023-12-04T01:52:26;85080.80;;;18.38;47.04
55486;BME280;71262;-25.924;28.194;2023-12-04T01:54:51;85084.64;;;18.24;46.81
55486;BME280;71262;-25.924;28.194;2023-12-04T01:57:16;85089.96;;;18.43;46.90
55486;BME280;71262;-25.924;28.194;2023-12-04T01:59:42;85093.20;;;18.30;46.73
55486;BME280;71262;-25.924;28.194;2023-12-04T02:02:07;85095.11;;;18.51;46.77
55486;BME280;71262;-25.924;28.194;2023-12-04T02:04:32;85100.22;;;18.53;47.07
55486;BME280;71262;-25.924;28.194;2023-12-04T02:06:57;85103.89;;;18.43;46.88
55486;BME280;71262;-25.924;28.194;2023-12-04T02:09:22;85103.65;;;18.40;46.93
55486;BME280;71262;-25.924;28.194;2023-12-04T02:11:48;85107.00;;;18.34;47.01
55486;BME280;71262;-25.924;28.194;2023-12-04T02:14:13;85109.40;;;18.29;46.61
55486;BME280;71262;-25.924;28.194;2023-12-04T02:16:41;85111.22;;;18.18;46.74
55486;BME280;71262;-25.924;28.194;2023-12-04T02:19:04;85110.44;;;18.41;46.35
55486;BME280;71262;-25.924;28.194;2023-12-04T02:21:29;85111.21;;;18.57;46.48
55486;BME280;71262;-25.924;28.194;2023-12-04T02:23:54;85112.87;;;18.60;46.47
55486;BME280;71262;-25.924;28.194;2023-12-04T02:26:23;85113.98;;;18.11;46.45
55486;BME280;71262;-25.924;28.194;2023-12-04T02:28:49;85116.41;;;18.25;46.66
55486;BME280;71262;-25.924;28.194;2023-12-04T02:31:10;85119.18;;;18.14;46.89
55486;BME280;71262;-25.924;28.194;2023-12-04T02:33:35;85122.31;;;18.37;46.50
55486;BME280;71262;-25.924;28.194;2023-12-04T02:36:01;85130.07;;;18.03;46.76
55486;BME280;71262;-25.924;28.194;2023-12-04T02:38:27;85130.82;;;18.62;46.53
55486;BME280;71262;-25.924;28.194;2023-12-04T02:40:51;85131.35;;;18.47;46.36
55486;BME280;71262;-25.924;28.194;2023-12-04T02:43:17;85130.46;;;18.45;46.41
55486;BME280;71262;-25.924;28.194;2023-12-04T02:45:42;85135.19;;;18.63;46.51
55486;BME280;71262;-25.924;28.194;2023-12-04T02:48:08;85141.52;;;18.60;46.63
55486;BME280;71262;-25.924;28.194;2023-12-04T02:50:32;85147.32;;;18.45;46.76
55486;BME280;71262;-25.924;28.194;2023-12-04T02:52:57;85150.42;;;18.53;46.66
55486;BME280;71262;-25.924;28.194;2023-12-04T02:55:22;85150.88;;;18.30;46.54
55486;BME280;71262;-25.924;28.194;2023-12-04T02:57:47;85148.49;;;18.54;46.57
55486;BME280;71262;-25.924;28.194;2023-12-04T03:00:14;85149.03;;;18.33;46.88
55486;BME280;71262;-25.924;28.194;2023-12-04T03:02:38;85150.66;;;18.29;46.62
55486;BME280;71262;-25.924;28.194;2023-12-04T03:05:03;85153.01;;;18.22;46.72
55486;BME280;71262;-25.924;28.194;2023-12-04T03:07:28;85155.04;;;18.27;46.73
55486;BME280;71262;-25.924;28.194;2023-12-04T03:09:53;85159.79;;;18.34;46.67
55486;BME280;71262;-25.924;28.194;2023-12-04T03:12:18;85161.33;;;18.32;46.64
55486;BME280;71262;-25.924;28.194;2023-12-04T03:14:44;85162.31;;;18.57;46.54
55486;BME280;71262;-25.924;28.194;2023-12-04T03:17:09;85164.37;;;18.24;46.51
55486;BME280;71262;-25.924;28.194;2023-12-04T03:19:34;85169.05;;;18.45;46.52
55486;BME280;71262;-25.924;28.194;2023-12-04T03:22:00;85169.75;;;18.55;46.28
55486;BME280;71262;-25.924;28.194;2023-12-04T03:24:24;85172.63;;;18.29;46.23
55486;BME280;71262;-25.924;28.194;2023-12-04T03:26:49;85174.45;;;18.36;46.48
55486;BME280;71262;-25.924;28.194;2023-12-04T03:29:14;85177.49;;;18.07;46.51
55486;BME280;71262;-25.924;28.194;2023-12-04T03:31:39;85178.63;;;18.05;46.47
55486;BME280;71262;-25.924;28.194;2023-12-04T03:34:04;85179.36;;;18.16;46.29
55486;BME280;71262;-25.924;28.194;2023-12-04T03:36:30;85178.03;;;18.26;46.53
55486;BME280;71262;-25.924;28.194;2023-12-04T03:38:55;85179.81;;;18.41;46.30
55486;BME280;71262;-25.924;28.194;2023-12-04T03:41:20;85181.89;;;18.18;46.61
55486;BME280;71262;-25.924;28.194;2023-12-04T03:43:45;85187.75;;;18.02;46.61
55486;BME280;71262;-25.924;28.194;2023-12-04T03:46:11;85188.48;;;18.18;46.47
55486;BME280;71262;-25.924;28.194;2023-12-04T03:48:35;85189.62;;;18.36;46.67
55486;BME280;71262;-25.924;28.194;2023-12-04T03:51:01;85190.97;;;18.42;46.60
55486;BME280;71262;-25.924;28.194;2023-12-04T03:53:26;85195.23;;;18.29;46.82
55486;BME280;71262;-25.924;28.194;2023-12-04T03:55:51;85197.26;;;18.31;46.80
55486;BME280;71262;-25.924;28.194;2023-12-04T03:58:17;85196.77;;;18.49;46.52
55486;BME280;71262;-25.924;28.194;2023-12-04T04:00:42;85199.79;;;18.28;46.45
55486;BME280;71262;-25.924;28.194;2023-12-04T04:03:07;85204.80;;;18.77;46.71
55486;BME280;71262;-25.924;28.194;2023-12-04T04:05:32;85206.88;;;19.22;47.25
55486;BME280;71262;-25.924;28.194;2023-12-04T04:07:57;85210.03;;;18.75;44.91
55486;BME280;71262;-25.924;28.194;2023-12-04T04:10:22;85211.13;;;18.86;45.20
55486;BME280;71262;-25.924;28.194;2023-12-04T04:12:47;85212.31;;;18.13;46.04
55486;BME280;71262;-25.924;28.194;2023-12-04T04:15:14;85215.47;;;18.70;46.28
55486;BME280;71262;-25.924;28.194;2023-12-04T04:17:38;85215.33;;;18.82;46.33
55486;BME280;71262;-25.924;28.194;2023-12-04T04:20:05;85216.38;;;18.83;46.54
55486;BME280;71262;-25.924;28.194;2023-12-04T04:22:28;85219.64;;;18.41;46.90
55486;BME280;71262;-25.924;28.194;2023-12-04T04:24:54;85225.45;;;18.62;47.06
55486;BME280;71262;-25.924;28.194;2023-12-04T04:27:18;85226.73;;;18.73;46.91
55486;BME280;71262;-25.924;28.194;2023-12-04T04:29:43;85228.11;;;18.39;47.05
55486;BME280;71262;-25.924;28.194;2023-12-04T04:32:08;85229.85;;;18.23;46.94
55486;BME280;71262;-25.924;28.194;2023-12-04T04:34:34;85230.03;;;18.74;46.95
55486;BME280;71262;-25.924;28.194;2023-12-04T04:36:59;85231.10;;;18.26;46.92
55486;BME280;71262;-25.924;28.194;2023-12-04T04:39:26;85233.28;;;18.44;47.04
55486;BME280;71262;-25.924;28.194;2023-12-04T04:41:50;85237.65;;;18.37;47.19
55486;BME280;71262;-25.924;28.194;2023-12-04T04:44:15;85246.50;;;18.49;47.07
55486;BME280;71262;-25.924;28.194;2023-12-04T04:46:40;85246.94;;;18.64;46.94
55486;BME280;71262;-25.924;28.194;2023-12-04T04:49:06;85245.92;;;18.56;46.41
55486;BME280;71262;-25.924;28.194;2023-12-04T04:51:32;85247.24;;;18.57;46.41
55486;BME280;71262;-25.924;28.194;2023-12-04T04:53:57;85252.49;;;18.66;46.62
55486;BME280;71262;-25.924;28.194;2023-12-04T04:56:22;85253.98;;;18.73;45.84
55486;BME280;71262;-25.924;28.194;2023-12-04T04:58:48;85256.91;;;18.79;46.00
55486;BME280;71262;-25.924;28.194;2023-12-04T05:01:15;85256.56;;;18.88;46.17
55486;BME280;71262;-25.924;28.194;2023-12-04T05:03:39;85260.44;;;18.93;45.22
55486;BME280;71262;-25.924;28.194;2023-12-04T05:06:05;85266.25;;;18.58;45.48
55486;BME280;71262;-25.924;28.194;2023-12-04T05:08:30;85269.18;;;18.59;46.12
55486;BME280;71262;-25.924;28.194;2023-12-04T05:10:55;85270.18;;;18.77;45.62
55486;BME280;71262;-25.924;28.194;2023-12-04T05:13:20;85269.90;;;18.96;44.79
55486;BME280;71262;-25.924;28.194;2023-12-04T05:15:45;85272.37;;;18.85;45.59
55486;BME280;71262;-25.924;28.194;2023-12-04T05:18:10;85278.36;;;18.93;44.85
55486;BME280;71262;-25.924;28.194;2023-12-04T05:20:35;85283.18;;;18.78;45.68
55486;BME280;71262;-25.924;28.194;2023-12-04T05:23:00;85286.79;;;19.03;45.41
55486;BME280;71262;-25.924;28.194;2023-12-04T05:25:26;85283.01;;;18.67;44.93
55486;BME280;71262;-25.924;28.194;2023-12-04T05:27:52;85283.78;;;18.65;45.78
55486;BME280;71262;-25.924;28.194;2023-12-04T05:30:17;85282.77;;;18.86;45.86
55486;BME280;71262;-25.924;28.194;2023-12-04T05:32:42;85281.12;;;19.03;45.85
55486;BME280;71262;-25.924;28.194;2023-12-04T05:35:08;85283.95;;;18.97;45.79
55486;BME280;71262;-25.924;28.194;2023-12-04T05:37:32;85286.25;;;19.22;45.93
55486;BME280;71262;-25.924;28.194;2023-12-04T05:39:57;85287.03;;;19.21;46.10
55486;BME280;71262;-25.924;28.194;2023-12-04T05:42:23;85286.43;;;19.27;46.23
55486;BME280;71262;-25.924;28.194;2023-12-04T05:44:48;85288.55;;;19.32;46.36
55486;BME280;71262;-25.924;28.194;2023-12-04T05:47:13;85291.46;;;19.39;46.47
55486;BME280;71262;-25.924;28.194;2023-12-04T05:49:39;85287.61;;;19.46;46.60
55486;BME280;71262;-25.924;28.194;2023-12-04T05:52:05;85285.75;;;19.40;46.82
55486;BME280;71262;-25.924;28.194;2023-12-04T05:54:29;85287.21;;;19.48;46.83
55486;BME280;71262;-25.924;28.194;2023-12-04T05:56:54;85292.07;;;19.33;46.79
55486;BME280;71262;-25.924;28.194;2023-12-04T05:59:19;85294.11;;;19.52;46.89
55486;BME280;71262;-25.924;28.194;2023-12-04T06:01:44;85294.03;;;19.55;46.96
55486;BME280;71262;-25.924;28.194;2023-12-04T06:04:09;85293.02;;;19.54;47.03
55486;BME280;71262;-25.924;28.194;2023-12-04T06:06:34;85293.30;;;19.42;46.93
55486;BME280;71262;-25.924;28.194;2023-12-04T06:08:59;85291.01;;;19.44;47.00
55486;BME280;71262;-25.924;28.194;2023-12-04T06:11:24;85293.09;;;19.20;47.08
55486;BME280;71262;-25.924;28.194;2023-12-04T06:13:49;85292.60;;;19.47;46.41
55486;BME280;71262;-25.924;28.194;2023-12-04T06:16:15;85292.24;;;19.36;45.41
55486;BME280;71262;-25.924;28.194;2023-12-04T06:18:40;85290.25;;;19.37;46.57
55486;BME280;71262;-25.924;28.194;2023-12-04T06:21:05;85291.91;;;19.35;46.86
55486;BME280;71262;-25.924;28.194;2023-12-04T06:23:30;85290.70;;;19.40;46.89
55486;BME280;71262;-25.924;28.194;2023-12-04T06:25:55;85287.93;;;19.44;46.92
55486;BME280;71262;-25.924;28.194;2023-12-04T06:28:20;85292.24;;;19.50;46.86
55486;BME280;71262;-25.924;28.194;2023-12-04T06:30:45;85294.27;;;19.52;46.82
55486;BME280;71262;-25.924;28.194;2023-12-04T06:33:10;85299.39;;;19.72;45.50
55486;BME280;71262;-25.924;28.194;2023-12-04T06:35:36;85292.90;;;19.55;45.04
55486;BME280;71262;-25.924;28.194;2023-12-04T06:38:05;85288.83;;;19.62;44.84
55486;BME280;71262;-25.924;28.194;2023-12-04T06:40:26;85286.81;;;19.82;45.50
55486;BME280;71262;-25.924;28.194;2023-12-04T06:42:51;85284.92;;;19.33;46.27
55486;BME280;71262;-25.924;28.194;2023-12-04T06:45:16;85283.24;;;19.46;46.41
55486;BME280;71262;-25.924;28.194;2023-12-04T06:47:43;85279.12;;;19.87;46.40
55486;BME280;71262;-25.924;28.194;2023-12-04T06:50:07;85280.16;;;19.63;45.84
55486;BME280;71262;-25.924;28.194;2023-12-04T06:52:30;85278.51;;;19.87;44.96
55486;BME280;71262;-25.924;28.194;2023-12-04T06:54:56;85273.86;;;19.50;44.56
55486;BME280;71262;-25.924;28.194;2023-12-04T06:57:21;85274.77;;;19.99;44.13
55486;BME280;71262;-25.924;28.194;2023-12-04T06:59:46;85277.59;;;19.47;43.78
55486;BME280;71262;-25.924;28.194;2023-12-04T07:02:11;85274.10;;;19.63;44.45
55486;BME280;71262;-25.924;28.194;2023-12-04T07:04:36;85273.82;;;19.48;45.05
55486;BME280;71262;-25.924;28.194;2023-12-04T07:07:01;85273.78;;;19.53;45.40
55486;BME280;71262;-25.924;28.194;2023-12-04T07:09:26;85269.69;;;19.61;45.41
55486;BME280;71262;-25.924;28.194;2023-12-04T07:11:51;85264.65;;;19.68;44.34
55486;BME280;71262;-25.924;28.194;2023-12-04T07:14:16;85266.01;;;19.86;44.00
55486;BME280;71262;-25.924;28.194;2023-12-04T07:16:41;85266.79;;;19.49;43.90
55486;BME280;71262;-25.924;28.194;2023-12-04T07:19:06;85263.20;;;19.40;43.78
55486;BME280;71262;-25.924;28.194;2023-12-04T07:21:31;85261.54;;;19.59;43.69
55486;BME280;71262;-25.924;28.194;2023-12-04T07:23:56;85259.76;;;19.41;43.38
55486;BME280;71262;-25.924;28.194;2023-12-04T07:26:22;85254.96;;;19.66;44.13
55486;BME280;71262;-25.924;28.194;2023-12-04T07:28:46;85254.38;;;19.81;44.65
55486;BME280;71262;-25.924;28.194;2023-12-04T07:31:11;85253.98;;;19.60;44.98
55486;BME280;71262;-25.924;28.194;2023-12-04T07:33:36;85255.40;;;19.55;44.09
55486;BME280;71262;-25.924;28.194;2023-12-04T07:36:02;85254.05;;;19.50;43.76
55486;BME280;71262;-25.924;28.194;2023-12-04T07:38:27;85249.65;;;19.50;43.53
55486;BME280;71262;-25.924;28.194;2023-12-04T07:40:52;85248.71;;;19.48;43.40
55486;BME280;71262;-25.924;28.194;2023-12-04T07:43:17;85246.16;;;19.49;43.22
55486;BME280;71262;-25.924;28.194;2023-12-04T07:45:42;85245.79;;;19.39;43.59
55486;BME280;71262;-25.924;28.194;2023-12-04T07:48:07;85245.99;;;19.43;44.50
55486;BME280;71262;-25.924;28.194;2023-12-04T07:50:32;85248.39;;;19.55;44.67
55486;BME280;71262;-25.924;28.194;2023-12-04T07:52:57;85247.10;;;19.74;44.16
55486;BME280;71262;-25.924;28.194;2023-12-04T07:55:22;85246.85;;;19.60;43.71
55486;BME280;71262;-25.924;28.194;2023-12-04T07:57:47;85244.93;;;19.99;43.51
55486;BME280;71262;-25.924;28.194;2023-12-04T08:00:13;85245.26;;;19.49;43.26
55486;BME280;71262;-25.924;28.194;2023-12-04T08:02:37;85243.18;;;20.04;43.10
55486;BME280;71262;-25.924;28.194;2023-12-04T08:05:02;85244.47;;;19.63;43.19
55486;BME280;71262;-25.924;28.194;2023-12-04T08:07:28;85245.50;;;19.81;43.17
55486;BME280;71262;-25.924;28.194;2023-12-04T08:09:53;85245.19;;;19.81;43.67
55486;BME280;71262;-25.924;28.194;2023-12-04T08:12:19;85241.06;;;20.00;44.20
55486;BME280;71262;-25.924;28.194;2023-12-04T08:14:44;85239.79;;;19.74;43.34
55486;BME280;71262;-25.924;28.194;2023-12-04T08:17:09;85236.06;;;19.65;42.69
55486;BME280;71262;-25.924;28.194;2023-12-04T08:19:34;85235.23;;;19.72;45.55
55486;BME280;71262;-25.924;28.194;2023-12-04T08:21:59;85233.43;;;19.71;47.03
55486;BME280;71262;-25.924;28.194;2023-12-04T08:24:24;85232.77;;;19.62;48.27
55486;BME280;71262;-25.924;28.194;2023-12-04T08:26:49;85231.13;;;19.64;49.31
55486;BME280;71262;-25.924;28.194;2023-12-04T08:29:15;85230.45;;;19.96;49.42
55486;BME280;71262;-25.924;28.194;2023-12-04T08:31:39;85227.59;;;19.81;50.00
55486;BME280;71262;-25.924;28.194;2023-12-04T08:34:04;85234.02;;;19.90;50.57
55486;BME280;71262;-25.924;28.194;2023-12-04T08:36:30;85230.08;;;19.95;50.85
55486;BME280;71262;-25.924;28.194;2023-12-04T08:38:55;85227.35;;;19.79;50.80
55486;BME280;71262;-25.924;28.194;2023-12-04T08:41:20;85228.26;;;20.20;51.85
55486;BME280;71262;-25.924;28.194;2023-12-04T08:43:45;85230.94;;;20.28;50.36
55486;BME280;71262;-25.924;28.194;2023-12-04T08:46:13;85225.09;;;20.36;48.88
55486;BME280;71262;-25.924;28.194;2023-12-04T08:48:37;85223.60;;;20.46;47.12
55486;BME280;71262;-25.924;28.194;2023-12-04T08:51:02;85222.08;;;20.55;46.24
55486;BME280;71262;-25.924;28.194;2023-12-04T08:53:27;85226.91;;;20.42;47.13
55486;BME280;71262;-25.924;28.194;2023-12-04T08:55:52;85215.11;;;20.51;48.26
55486;BME280;71262;-25.924;28.194;2023-12-04T08:58:18;85212.86;;;20.60;48.54
55486;BME280;71262;-25.924;28.194;2023-12-04T09:00:44;85211.02;;;20.68;47.23
55486;BME280;71262;-25.924;28.194;2023-12-04T09:03:09;85207.92;;;20.88;45.77
55486;BME280;71262;-25.924;28.194;2023-12-04T09:05:34;85208.06;;;21.02;44.67
55486;BME280;71262;-25.924;28.194;2023-12-04T09:07:59;85204.29;;;21.15;43.50
55486;BME280;71262;-25.924;28.194;2023-12-04T09:10:24;85200.69;;;21.01;42.71
55486;BME280;71262;-25.924;28.194;2023-12-04T09:12:49;85193.08;;;21.43;42.48
55486;BME280;71262;-25.924;28.194;2023-12-04T09:15:14;85191.84;;;21.13;41.99
55486;BME280;71262;-25.924;28.194;2023-12-04T09:17:39;85191.50;;;21.35;41.54
55486;BME280;71262;-25.924;28.194;2023-12-04T09:20:05;85187.94;;;21.44;40.98
55486;BME280;71262;-25.924;28.194;2023-12-04T09:22:29;85184.88;;;21.50;40.63
55486;BME280;71262;-25.924;28.194;2023-12-04T09:24:54;85183.85;;;21.48;40.47
55486;BME280;71262;-25.924;28.194;2023-12-04T09:27:19;85181.76;;;21.51;41.36
55486;BME280;71262;-25.924;28.194;2023-12-04T09:29:44;85179.24;;;21.78;42.23
55486;BME280;71262;-25.924;28.194;2023-12-04T09:32:10;85174.85;;;21.17;42.99
55486;BME280;71262;-25.924;28.194;2023-12-04T09:34:35;85171.71;;;21.50;43.58
55486;BME280;71262;-25.924;28.194;2023-12-04T09:37:00;85169.88;;;21.34;44.24
55486;BME280;71262;-25.924;28.194;2023-12-04T09:39:26;85165.84;;;21.22;44.71
55486;BME280;71262;-25.924;28.194;2023-12-04T09:41:51;85166.34;;;21.35;45.12
55486;BME280;71262;-25.924;28.194;2023-12-04T09:44:17;85162.84;;;21.41;45.57
55486;BME280;71262;-25.924;28.194;2023-12-04T09:46:41;85164.10;;;20.60;45.90
55486;BME280;71262;-25.924;28.194;2023-12-04T09:49:07;85161.85;;;20.97;46.17
55486;BME280;71262;-25.924;28.194;2023-12-04T09:51:31;85161.16;;;20.70;46.32
55486;BME280;71262;-25.924;28.194;2023-12-04T09:53:57;85156.37;;;20.77;46.61
55486;BME280;71262;-25.924;28.194;2023-12-04T09:56:22;85152.11;;;20.79;47.08
55486;BME280;71262;-25.924;28.194;2023-12-04T09:58:49;85150.73;;;20.68;47.27
55486;BME280;71262;-25.924;28.194;2023-12-04T10:01:12;85149.36;;;20.31;47.03
55486;BME280;71262;-25.924;28.194;2023-12-04T10:03:37;85142.38;;;20.57;47.09
55486;BME280;71262;-25.924;28.194;2023-12-04T10:06:02;85140.41;;;20.74;47.24
55486;BME280;71262;-25.924;28.194;2023-12-04T10:08:27;85137.77;;;20.65;47.41
55486;BME280;71262;-25.924;28.194;2023-12-04T10:10:52;85132.68;;;20.47;47.32
55486;BME280;71262;-25.924;28.194;2023-12-04T10:13:17;85127.95;;;20.67;47.46
55486;BME280;71262;-25.924;28.194;2023-12-04T10:15:46;85121.58;;;20.67;47.45
55486;BME280;71262;-25.924;28.194;2023-12-04T10:18:07;85118.85;;;20.40;47.95
55486;BME280;71262;-25.924;28.194;2023-12-04T10:20:32;85120.04;;;20.50;47.82
55486;BME280;71262;-25.924;28.194;2023-12-04T10:22:58;85116.48;;;20.44;47.96
55486;BME280;71262;-25.924;28.194;2023-12-04T10:25:23;85113.25;;;20.15;48.58
55486;BME280;71262;-25.924;28.194;2023-12-04T10:27:47;85110.18;;;20.10;48.80
55486;BME280;71262;-25.924;28.194;2023-12-04T10:32:39;85107.85;;;20.12;47.43
55486;BME280;71262;-25.924;28.194;2023-12-04T10:35:02;85107.97;;;20.18;46.06
55486;BME280;71262;-25.924;28.194;2023-12-04T10:37:29;85103.94;;;20.18;45.63
55486;BME280;71262;-25.924;28.194;2023-12-04T10:39:52;85107.97;;;19.90;46.72
55486;BME280;71262;-25.924;28.194;2023-12-04T10:42:25;85103.00;;;20.03;47.27
55486;BME280;71262;-25.924;28.194;2023-12-04T10:44:42;85100.08;;;20.17;47.20
55486;BME280;71262;-25.924;28.194;2023-12-04T10:47:08;85098.10;;;20.22;47.33
55486;BME280;71262;-25.924;28.194;2023-12-04T10:49:33;85094.69;;;20.43;47.55
55486;BME280;71262;-25.924;28.194;2023-12-04T10:51:59;85092.10;;;20.32;47.79
55486;BME280;71262;-25.924;28.194;2023-12-04T10:54:23;85093.55;;;20.03;47.95
55486;BME280;71262;-25.924;28.194;2023-12-04T10:56:49;85090.68;;;20.07;48.03
55486;BME280;71262;-25.924;28.194;2023-12-04T10:59:16;85085.29;;;20.04;48.10
55486;BME280;71262;-25.924;28.194;2023-12-04T11:01:38;85084.57;;;20.02;48.32
55486;BME280;71262;-25.924;28.194;2023-12-04T11:04:03;85085.93;;;20.14;48.10
55486;BME280;71262;-25.924;28.194;2023-12-04T11:06:28;85086.96;;;20.01;48.51
55486;BME280;71262;-25.924;28.194;2023-12-04T11:08:54;85082.18;;;19.88;48.34
55486;BME280;71262;-25.924;28.194;2023-12-04T11:11:24;85079.54;;;20.04;48.53
55486;BME280;71262;-25.924;28.194;2023-12-04T11:13:45;85074.86;;;20.03;48.68
55486;BME280;71262;-25.924;28.194;2023-12-04T11:16:12;85071.30;;;20.09;47.88
55486;BME280;71262;-25.924;28.194;2023-12-04T11:18:37;85066.59;;;20.03;46.79
55486;BME280;71262;-25.924;28.194;2023-12-04T11:21:01;85064.93;;;20.11;46.35
55486;BME280;71262;-25.924;28.194;2023-12-04T11:23:24;85062.00;;;20.35;47.17
55486;BME280;71262;-25.924;28.194;2023-12-04T11:25:48;85060.00;;;20.17;47.48
55486;BME280;71262;-25.924;28.194;2023-12-04T11:28:14;85060.93;;;19.98;48.04
55486;BME280;71262;-25.924;28.194;2023-12-04T11:30:39;85057.04;;;19.70;48.78
55486;BME280;71262;-25.924;28.194;2023-12-04T11:33:05;85049.96;;;19.89;48.65
55486;BME280;71262;-25.924;28.194;2023-12-04T11:35:29;85048.38;;;19.95;48.52
55486;BME280;71262;-25.924;28.194;2023-12-04T11:37:54;85052.07;;;19.92;47.56
55486;BME280;71262;-25.924;28.194;2023-12-04T11:40:19;85046.50;;;19.90;46.65
55486;BME280;71262;-25.924;28.194;2023-12-04T11:42:44;85035.25;;;19.85;46.74
55486;BME280;71262;-25.924;28.194;2023-12-04T11:45:10;85033.85;;;19.78;47.86
55486;BME280;71262;-25.924;28.194;2023-12-04T11:49:59;85032.53;;;20.19;48.09
55486;BME280;71262;-25.924;28.194;2023-12-04T11:54:57;85025.40;;;20.18;48.37
55486;BME280;71262;-25.924;28.194;2023-12-04T11:57:20;85024.43;;;19.96;48.35
55486;BME280;71262;-25.924;28.194;2023-12-04T11:59:40;85022.51;;;20.22;48.44
55486;BME280;71262;-25.924;28.194;2023-12-04T12:02:08;85019.92;;;19.83;47.48
55486;BME280;71262;-25.924;28.194;2023-12-04T12:04:30;85016.89;;;19.83;46.71
55486;BME280;71262;-25.924;28.194;2023-12-04T12:06:55;85012.97;;;19.69;46.38
55486;BME280;71262;-25.924;28.194;2023-12-04T12:09:20;85009.60;;;20.26;47.46
55486;BME280;71262;-25.924;28.194;2023-12-04T12:11:45;85006.95;;;19.40;46.90
55486;BME280;71262;-25.924;28.194;2023-12-04T12:14:10;85000.91;;;20.48;47.40
55486;BME280;71262;-25.924;28.194;2023-12-04T12:16:35;84996.74;;;20.44;45.92
55486;BME280;71262;-25.924;28.194;2023-12-04T12:19:01;84988.59;;;19.97;45.03
55486;BME280;71262;-25.924;28.194;2023-12-04T12:21:27;84981.64;;;20.18;46.17
55486;BME280;71262;-25.924;28.194;2023-12-04T12:23:50;84981.27;;;20.11;47.44
55486;BME280;71262;-25.924;28.194;2023-12-04T12:26:15;84979.51;;;19.75;48.10
55486;BME280;71262;-25.924;28.194;2023-12-04T12:28:40;84982.70;;;19.68;48.13
55486;BME280;71262;-25.924;28.194;2023-12-04T12:31:06;84981.23;;;20.01;47.75
55486;BME280;71262;-25.924;28.194;2023-12-04T12:33:30;84973.15;;;19.61;46.94
55486;BME280;71262;-25.924;28.194;2023-12-04T12:35:55;84979.50;;;19.96;46.41